createdAt,value
2023-04-03T00:04:24.806Z,98416.31
2023-04-03T00:09:27.950Z,98413.59
2023-04-03T00:14:31.194Z,98417.19
2023-04-03T00:19:36.020Z,98414.44
2023-04-03T00:24:39.168Z,98412.00
2023-04-03T00:29:42.354Z,98416.63
2023-04-03T00:34:46.868Z,98428.31
2023-04-03T00:39:50.041Z,98430.25
2023-04-03T00:45:32.587Z,98437.63
2023-04-03T00:50:40.593Z,98432.91
2023-04-03T00:55:45.449Z,98437.03
2023-04-03T01:00:54.646Z,98432.06
2023-04-03T01:05:59.588Z,98434.34
2023-04-03T01:11:02.975Z,98431.97
2023-04-03T01:16:08.127Z,98436.69
2023-04-03T01:21:47.888Z,98429.69
2023-04-03T01:26:52.513Z,98430.16
2023-04-03T01:32:00.963Z,98436.69
2023-04-03T01:37:04.304Z,98443.72
2023-04-03T01:42:07.877Z,98443.66
2023-04-03T01:47:17.128Z,98448.50
2023-04-03T01:52:20.455Z,98446.03
2023-04-03T01:57:23.717Z,98452.16
2023-04-03T02:02:28.357Z,98458.13
2023-04-03T02:07:31.689Z,98463.75
2023-04-03T02:12:35.057Z,98468.50
2023-04-03T02:17:39.624Z,98475.28
2023-04-03T02:22:42.696Z,98469.72
2023-04-03T02:27:45.745Z,98473.56
2023-04-03T02:32:50.236Z,98477.31
2023-04-03T02:37:53.450Z,98476.78
2023-04-03T02:42:56.835Z,98476.84
2023-04-03T02:48:02.986Z,98473.31
2023-04-03T02:53:06.489Z,98476.19
2023-04-03T02:58:10.186Z,98471.47
2023-04-03T03:03:15.986Z,98471.97
2023-04-03T03:08:21.296Z,98477.13
2023-04-03T03:13:24.592Z,98477.38
2023-04-03T03:18:29.081Z,98484.38
2023-04-03T03:23:34.250Z,98485.34
2023-04-03T03:28:38.768Z,98478.34
2023-04-03T03:33:44.222Z,98479.72
2023-04-03T03:38:47.601Z,98478.94
2023-04-03T03:43:50.690Z,98489.16
2023-04-03T03:48:55.461Z,98481.63
2023-04-03T03:53:58.804Z,98484.75
2023-04-03T03:59:02.047Z,98483.13
2023-04-03T04:04:06.950Z,98495.13
2023-04-03T04:09:11.794Z,98492.44
2023-04-03T04:14:15.468Z,98491.75
2023-04-03T04:19:21.840Z,98496.00
2023-04-03T04:24:26.029Z,98492.66
2023-04-03T04:29:36.314Z,98508.44
2023-04-03T04:34:42.108Z,98510.03
2023-04-03T04:39:45.971Z,98512.81
2023-04-03T04:44:49.449Z,98513.00
2023-04-03T04:49:54.354Z,98511.38
2023-04-03T04:54:58.298Z,98513.31
2023-04-03T05:00:01.751Z,98529.53
2023-04-03T05:05:08.677Z,98526.50
2023-04-03T05:10:12.758Z,98539.34
2023-04-03T05:15:16.606Z,98548.66
2023-04-03T05:20:22.080Z,98537.78
2023-04-03T05:25:27.082Z,98545.91
2023-04-03T05:30:32.238Z,98549.44
2023-04-03T05:35:40.462Z,98552.59
2023-04-03T05:40:45.920Z,98560.69
2023-04-03T05:45:50.442Z,98562.25
2023-04-03T05:50:57.024Z,98555.81
2023-04-03T05:56:02.529Z,98568.13
2023-04-03T06:01:08.857Z,98568.88
2023-04-03T06:06:16.830Z,98581.59
2023-04-03T06:11:20.236Z,98582.16
2023-04-03T06:16:23.430Z,98582.28
2023-04-03T06:21:28.288Z,98589.69
2023-04-03T06:26:31.523Z,98585.63
2023-04-03T06:31:34.799Z,98587.78
2023-04-03T06:36:39.754Z,98589.53
2023-04-03T06:41:42.917Z,98591.09
2023-04-03T06:46:47.674Z,98602.41
2023-04-03T06:51:52.725Z,98610.63
2023-04-03T06:56:55.905Z,98617.56
2023-04-03T07:02:00.854Z,98620.47
2023-04-03T07:07:05.488Z,98632.13
2023-04-03T07:12:08.960Z,98635.13
2023-04-03T07:17:12.144Z,98644.75
2023-04-03T07:22:16.939Z,98655.28
2023-04-03T07:27:20.643Z,98650.75
2023-04-03T07:32:24.208Z,98645.13
2023-04-03T07:37:29.044Z,98650.69
2023-04-03T07:42:32.677Z,98665.94
2023-04-03T07:47:36.151Z,98665.38
2023-04-03T07:52:40.714Z,98672.03
2023-04-03T07:57:43.857Z,98678.63
2023-04-03T08:02:51.389Z,98678.78
2023-04-03T08:07:56.606Z,98681.63
2023-04-03T08:13:00.042Z,98686.63
2023-04-03T08:18:03.381Z,98685.91
2023-04-03T08:23:08.139Z,98690.59
2023-04-03T08:28:12.008Z,98692.75
2023-04-03T08:33:15.275Z,98689.53
2023-04-03T08:38:19.978Z,98693.94
2023-04-03T08:43:36.057Z,98692.38
2023-04-03T08:48:44.537Z,98691.28
2023-04-03T08:53:57.552Z,98691.06
2023-04-03T08:59:06.348Z,98693.25
2023-04-03T09:04:14.912Z,98688.59
2023-04-03T09:09:33.347Z,98678.66
2023-04-03T09:14:41.540Z,98679.72
2023-04-03T09:19:54.058Z,98679.34
2023-04-03T09:25:03.916Z,98680.41
2023-04-03T09:30:10.207Z,98684.44
2023-04-03T09:35:27.315Z,98689.22
2023-04-03T09:40:39.873Z,98694.22
2023-04-03T09:45:44.045Z,98683.19
2023-04-03T09:51:00.656Z,98683.34
2023-04-03T09:56:08.035Z,98675.47
2023-04-03T10:01:25.656Z,98680.53
2023-04-03T10:06:33.315Z,98678.22
2023-04-03T10:11:37.887Z,98671.09
2023-04-03T10:16:48.602Z,98679.78
2023-04-03T10:21:58.245Z,98664.34
2023-04-03T10:27:08.867Z,98681.22
2023-04-03T10:32:33.770Z,98672.47
2023-04-03T10:37:51.913Z,98672.94
2023-04-03T10:43:04.920Z,98673.09
2023-04-03T10:48:18.610Z,98670.38
2023-04-03T10:53:33.726Z,98661.69
2023-04-03T10:58:42.715Z,98664.63
2023-04-03T11:03:49.722Z,98655.34
2023-04-03T11:08:57.911Z,98661.78
2023-04-03T11:14:05.467Z,98650.47
2023-04-03T11:19:22.398Z,98639.13
2023-04-03T11:24:28.620Z,98634.13
2023-04-03T11:29:37.685Z,98637.06
2023-04-03T11:34:44.455Z,98615.16
2023-04-03T11:39:56.553Z,98618.03
2023-04-03T11:45:29.975Z,98645.13
2023-04-03T11:50:41.856Z,98640.72
2023-04-03T11:55:47.648Z,98628.13
2023-04-03T12:01:07.186Z,98617.78
2023-04-03T12:06:55.896Z,98609.53
2023-04-03T12:12:01.484Z,98601.31
2023-04-03T12:17:24.843Z,98594.09
2023-04-03T12:22:29.174Z,98610.25
2023-04-03T12:27:40.444Z,98599.69
2023-04-03T12:33:12.811Z,98596.22
2023-04-03T12:38:30.974Z,98579.69
2023-04-03T12:43:52.614Z,98577.56
2023-04-03T12:49:00.641Z,98557.16
2023-04-03T12:54:06.888Z,98562.97
2023-04-03T12:59:18.042Z,98575.53
2023-04-03T13:04:23.129Z,98574.72
2023-04-03T13:09:28.858Z,98571.00
2023-04-03T13:14:33.756Z,98577.63
2023-04-03T13:19:38.613Z,98564.22
2023-04-03T13:24:42.099Z,98547.38
2023-04-03T13:29:45.936Z,98558.38
2023-04-03T13:34:51.409Z,98566.63
2023-04-03T13:40:12.556Z,98542.84
2023-04-03T13:45:22.614Z,98544.28
2023-04-03T13:50:30.006Z,98545.38
2023-04-03T13:55:35.915Z,98533.84
2023-04-03T14:00:41.820Z,98544.50
2023-04-03T14:05:46.848Z,98535.53
2023-04-03T14:10:50.824Z,98536.19
2023-04-03T14:15:56.441Z,98539.91
2023-04-03T14:21:03.765Z,98532.16
2023-04-03T14:26:10.730Z,98525.47
2023-04-03T14:31:15.095Z,98526.16
2023-04-03T14:36:23.079Z,98536.91
2023-04-03T14:41:28.151Z,98535.38
2023-04-03T14:46:48.112Z,98528.81
2023-04-03T14:51:59.636Z,98525.34
2023-04-03T14:57:03.499Z,98523.34
2023-04-03T15:02:18.022Z,98523.41
2023-04-03T15:07:22.908Z,98525.38
2023-04-03T15:12:26.614Z,98523.91
2023-04-03T15:17:29.878Z,98513.81
2023-04-03T15:22:34.858Z,98527.94
2023-04-03T15:27:38.563Z,98525.25
2023-04-03T15:32:41.802Z,98519.53
2023-04-03T15:37:46.354Z,98519.06
2023-04-03T15:42:50.006Z,98511.97
2023-04-03T15:47:55.440Z,98507.31
2023-04-03T15:53:00.086Z,98514.03
2023-04-03T15:58:03.665Z,98524.19
2023-04-03T16:03:18.508Z,98513.63
2023-04-03T16:08:23.547Z,98517.31
2023-04-03T16:13:27.130Z,98515.06
2023-04-03T16:18:31.350Z,98525.31
2023-04-03T16:23:36.381Z,98521.78
2023-04-03T16:28:43.686Z,98510.47
2023-04-03T16:33:54.009Z,98524.69
2023-04-03T16:38:58.693Z,98533.34
2023-04-03T16:44:02.106Z,98525.81
2023-04-03T16:49:05.657Z,98529.69
2023-04-03T16:54:11.505Z,98526.22
2023-04-03T16:59:14.703Z,98520.47
2023-04-03T17:04:25.394Z,98525.66
2023-04-03T17:09:35.648Z,98524.50
2023-04-03T17:14:41.802Z,98523.28
2023-04-03T17:19:46.363Z,98532.31
2023-04-03T17:24:56.629Z,98526.84
2023-04-03T17:30:00.972Z,98529.47
2023-04-03T17:35:11.090Z,98539.34
2023-04-03T17:40:26.118Z,98530.22
2023-04-03T17:45:30.096Z,98546.06
2023-04-03T17:50:38.367Z,98534.69
2023-04-03T17:56:03.577Z,98542.34
2023-04-03T18:01:22.512Z,98545.75
2023-04-03T18:06:34.386Z,98543.03
2023-04-03T18:11:40.310Z,98535.69
2023-04-03T18:16:43.537Z,98542.81
2023-04-03T18:21:48.743Z,98543.53
2023-04-03T18:26:57.707Z,98547.38
2023-04-03T18:32:03.887Z,98550.09
2023-04-03T18:37:08.452Z,98550.84
2023-04-03T18:42:16.571Z,98553.75
2023-04-03T18:47:20.081Z,98556.47
2023-04-03T18:52:25.488Z,98563.44
2023-04-03T18:57:33.373Z,98564.94
2023-04-03T19:02:37.552Z,98561.00
2023-04-03T19:07:46.281Z,98558.34
2023-04-03T19:12:58.735Z,98571.63
2023-04-03T19:18:04.630Z,98568.97
2023-04-03T19:23:09.537Z,98572.34
2023-04-03T19:28:14.959Z,98568.19
2023-04-03T19:33:21.617Z,98577.38
2023-04-03T19:38:25.225Z,98566.78
2023-04-03T19:43:30.496Z,98567.00
2023-04-03T19:48:36.601Z,98572.91
2023-04-03T19:53:39.870Z,98578.34
2023-04-03T19:58:46.016Z,98570.25
2023-04-03T20:03:49.608Z,98575.47
2023-04-03T20:08:53.678Z,98569.53
2023-04-03T20:13:58.484Z,98578.97
2023-04-03T20:19:01.679Z,98576.03
2023-04-03T20:24:09.339Z,98571.88
2023-04-03T20:29:16.681Z,98572.81
2023-04-03T20:34:20.146Z,98565.56
2023-04-03T20:39:25.009Z,98568.47
2023-04-03T20:44:29.942Z,98572.25
2023-04-03T20:49:34.370Z,98560.06
2023-04-03T20:54:38.429Z,98560.88
2023-04-03T20:59:43.749Z,98555.31
2023-04-03T21:04:53.053Z,98559.16
2023-04-03T21:10:33.839Z,98551.34
2023-04-03T21:15:49.235Z,98538.59
2023-04-03T21:20:54.082Z,98533.09
2023-04-03T21:25:58.189Z,98544.44
2023-04-03T21:31:01.446Z,98545.00
2023-04-03T21:36:06.234Z,98533.88
2023-04-03T21:41:09.463Z,98532.53
2023-04-03T21:46:12.697Z,98527.16
2023-04-03T21:51:18.010Z,98524.56
2023-04-03T21:56:22.208Z,98526.56
2023-04-03T22:01:25.579Z,98521.13
2023-04-03T22:06:30.751Z,98521.44
2023-04-03T22:11:33.871Z,98519.84
2023-04-03T22:16:37.202Z,98517.22
2023-04-03T22:21:42.283Z,98524.34
2023-04-03T22:26:45.503Z,98521.44
2023-04-03T22:31:48.729Z,98514.28
2023-04-03T22:36:53.660Z,98513.00
2023-04-03T22:41:56.909Z,98513.63
2023-04-03T22:47:00.093Z,98505.50
2023-04-03T22:52:04.929Z,98505.19
2023-04-03T22:57:09.605Z,98491.94
2023-04-03T23:02:13.534Z,98496.69
2023-04-03T23:07:19.461Z,98493.22
2023-04-03T23:12:22.841Z,98493.28
2023-04-03T23:17:25.992Z,98500.94
2023-04-03T23:22:30.760Z,98496.75
2023-04-03T23:27:33.845Z,98492.41
2023-04-03T23:32:37.046Z,98498.72
2023-04-03T23:37:41.721Z,98496.56
2023-04-03T23:42:44.776Z,98493.19
2023-04-03T23:47:48.007Z,98495.31
2023-04-03T23:52:52.602Z,98496.69
2023-04-03T23:57:55.731Z,98495.06
